Time;durP1;ratioP1;P1;durP2;ratioP2;P2;SDS_P1;SDS_P2;PMS_P1;PMS_P2;Temp;Humidity;BMP_temperature;BMP_pressure;BME280_temperature;BME280_humidity;BME280_pressure;Samples;Min_cycle;Max_cycle;Signal;HPM_P1;HPM_P2
2022/01/23 00:01:48;;;;;;;5.60;4.60;;;4.80;99.90;;;5.52;100.00;-19914.69;5034377;28;20253;-65
2022/01/23 00:04:17;;;;;;;5.20;4.63;;;4.80;99.90;;;5.58;100.00;-19916.91;5034165;28;20246;-64
2022/01/23 00:06:47;;;;;;;5.20;4.70;;;4.80;99.90;;;5.47;100.00;-19913.16;5033752;28;20644;-63
2022/01/23 00:09:18;;;;;;;6.13;5.03;;;4.80;99.90;;;5.45;100.00;-19912.47;5034783;28;20200;-62
2022/01/23 00:11:51;;;;;;;5.43;4.77;;;4.80;99.90;;;5.61;100.00;-19917.78;5034064;28;20252;-65
2022/01/23 00:17:18;;;;;;;6.03;5.03;;;4.80;99.90;;;5.63;100.00;-19918.47;5033723;28;20744;-70
2022/01/23 00:19:48;;;;;;;5.97;4.70;;;4.80;99.90;;;5.49;100.00;-19913.66;5033638;28;20316;-69
2022/01/23 00:22:17;;;;;;;6.03;4.80;;;4.70;99.90;;;5.47;100.00;-19912.97;5033743;28;20323;-68
2022/01/23 00:30:26;;;;;;;9.27;5.27;;;4.70;99.90;;;5.13;100.00;-19901.38;5033974;28;20192;-69
2022/01/23 00:32:56;;;;;;;5.10;4.57;;;4.60;99.90;;;5.12;100.00;-19901.03;5033403;28;20879;-68
2022/01/23 00:35:25;;;;;;;6.47;4.83;;;4.50;99.90;;;5.14;100.00;-19901.88;5033326;28;20229;-69
2022/01/23 00:37:55;;;;;;;6.07;5.10;;;4.50;99.90;;;5.31;100.00;-19907.53;5033300;28;20328;-70
2022/01/23 00:40:27;;;;;;;6.70;5.17;;;4.50;99.90;;;5.25;100.00;-19905.47;5039229;28;20319;-67
2022/01/23 00:42:57;;;;;;;7.93;5.67;;;4.60;99.90;;;5.24;100.00;-19905.31;5051454;28;20251;-68
2022/01/23 00:45:31;;;;;;;6.93;5.60;;;4.50;99.90;;;5.28;100.00;-19906.50;5035237;28;20768;-69
2022/01/23 00:48:04;;;;;;;6.33;5.17;;;4.60;99.90;;;5.28;100.00;-19906.50;5033469;28;20217;-68
2022/01/23 00:50:36;;;;;;;6.50;5.33;;;4.60;99.90;;;5.30;100.00;-19907.34;5033116;28;20655;-67
2022/01/23 00:53:08;;;;;;;6.90;5.23;;;4.60;99.90;;;5.31;100.00;-19907.53;5033151;28;20226;-68
2022/01/23 00:55:40;;;;;;;6.10;4.80;;;4.60;99.90;;;5.35;100.00;-19908.88;5033025;28;20310;-68
2022/01/23 00:58:09;;;;;;;8.33;4.83;;;4.60;99.90;;;5.40;100.00;-19910.75;5032805;28;20239;-69
2022/01/23 01:00:38;;;;;;;6.27;4.87;;;4.70;99.90;;;5.39;100.00;-19910.25;5032524;28;20194;-68
2022/01/23 01:03:06;;;;;;;6.97;4.97;;;4.70;99.90;;;5.43;100.00;-19911.78;5033111;28;20227;-68
2022/01/23 01:05:35;;;;;;;7.23;4.73;;;4.70;99.90;;;5.38;100.00;-19909.91;5032409;28;20729;-68
2022/01/23 01:08:06;;;;;;;4.77;4.20;;;4.70;99.90;;;5.52;100.00;-19914.88;5032334;28;20812;-68
2022/01/23 01:10:43;;;;;;;5.87;5.13;;;4.70;99.90;;;5.51;100.00;-19914.34;5032655;28;20660;-67
2022/01/23 01:13:13;;;;;;;5.90;4.50;;;4.70;99.90;;;5.52;100.00;-19914.69;5032557;28;20767;-68
2022/01/23 01:15:58;;;;;;;5.97;4.80;;;4.70;99.90;;;5.62;100.00;-19918.28;5032395;28;20263;-68
2022/01/23 01:32:27;;;;;;;5.77;4.90;;;4.80;99.90;;;5.50;100.00;-19914.00;5012327;28;20269;-68
2022/01/23 01:35:05;;;;;;;5.50;4.40;;;4.70;99.90;;;5.47;100.00;-19913.16;5023783;28;20256;-68
2022/01/23 01:37:33;;;;;;;5.97;4.87;;;4.70;99.90;;;5.62;100.00;-19918.28;5046419;28;20316;-68
2022/01/23 01:40:01;;;;;;;6.07;5.20;;;4.80;99.90;;;5.45;100.00;-19912.31;5048199;28;20316;-67
2022/01/23 01:42:30;;;;;;;6.63;5.33;;;4.70;99.90;;;5.47;100.00;-19913.16;5032482;28;20673;-69
2022/01/23 01:44:59;;;;;;;6.60;4.87;;;4.70;99.90;;;5.44;100.00;-19912.13;5031832;28;20305;-68
2022/01/23 01:47:27;;;;;;;6.20;5.10;;;4.70;99.90;;;5.42;100.00;-19911.44;5031973;28;20311;-67
2022/01/23 01:49:55;;;;;;;5.73;5.13;;;4.70;99.90;;;5.60;100.00;-19917.44;5031807;28;20330;-67
2022/01/23 01:52:23;;;;;;;7.00;5.17;;;4.70;99.90;;;5.72;100.00;-19921.53;5031883;28;20656;-68
2022/01/23 01:54:59;;;;;;;6.77;5.37;;;4.70;99.90;;;5.39;100.00;-19910.25;5030329;28;20316;-68
2022/01/23 01:57:31;;;;;;;7.53;5.67;;;4.70;99.90;;;5.49;100.00;-19913.66;5031771;28;20277;-70
2022/01/23 02:00:12;;;;;;;6.43;5.60;;;4.70;99.90;;;5.67;100.00;-19919.81;5032260;28;20208;-69
2022/01/23 02:03:19;;;;;;;7.13;5.67;;;4.70;99.90;;;5.60;100.00;-19917.59;5031900;28;20233;-68
2022/01/23 02:08:32;;;;;;;7.27;5.80;;;4.70;99.90;;;5.74;100.00;-19922.22;5011960;28;20246;-69
2022/01/23 02:11:07;;;;;;;7.37;5.60;;;4.70;99.90;;;5.46;100.00;-19912.66;5011876;28;20257;-68
2022/01/23 02:13:40;;;;;;;6.60;5.53;;;4.70;99.90;;;5.37;100.00;-19909.56;5012192;28;20253;-68
2022/01/23 02:52:38;;;;;;;8.93;6.60;;;4.70;99.90;;;5.62;100.00;-19918.13;5030964;28;20224;-69
2022/01/23 02:55:14;;;;;;;10.27;7.20;;;4.80;99.90;;;5.58;100.00;-19916.75;5031051;28;20247;-67
2022/01/23 02:57:53;;;;;;;8.70;7.10;;;4.70;99.90;;;5.49;100.00;-19913.66;5030399;28;20232;-69
2022/01/23 03:00:25;;;;;;;8.43;6.60;;;4.70;99.90;;;5.43;100.00;-19911.63;5031362;28;20273;-68
2022/01/23 03:03:01;;;;;;;10.00;7.60;;;4.70;99.90;;;5.45;100.00;-19912.47;5030386;28;20399;-69
2022/01/23 03:05:36;;;;;;;9.57;7.13;;;4.70;99.90;;;5.48;100.00;-19913.34;5030712;28;20236;-68
2022/01/23 03:08:20;;;;;;;8.73;7.07;;;4.70;99.90;;;5.56;100.00;-19916.06;5049310;28;20232;-67
2022/01/23 03:11:00;;;;;;;11.37;7.50;;;4.70;99.90;;;5.50;100.00;-19914.00;5050390;28;20260;-68
2022/01/23 03:13:47;;;;;;;9.50;7.27;;;4.70;99.90;;;5.44;100.00;-19911.97;5050326;28;20235;-68
2022/01/23 03:24:46;;;;;;;9.33;7.53;;;4.80;99.90;;;5.76;100.00;-19922.91;5050576;28;20276;-67
2022/01/23 03:27:53;;;;;;;10.23;7.70;;;4.80;99.90;;;5.63;100.00;-19918.47;5030658;28;20697;-67
2022/01/23 03:30:24;;;;;;;9.07;7.60;;;4.80;99.90;;;5.54;100.00;-19915.56;5047684;28;20324;-70
2022/01/23 03:32:54;;;;;;;8.87;7.33;;;4.80;99.90;;;5.58;100.00;-19916.91;5049814;28;20298;-68
2022/01/23 03:35:23;;;;;;;9.43;7.70;;;4.80;99.90;;;5.69;100.00;-19920.69;5050223;28;20315;-68
2022/01/23 03:37:52;;;;;;;11.50;8.03;;;4.80;99.90;;;5.72;100.00;-19921.69;5050025;28;20294;-68
2022/01/23 03:40:20;;;;;;;10.57;8.53;;;4.80;99.90;;;5.70;100.00;-19921.03;5050403;28;20311;-68
2022/01/23 03:42:56;;;;;;;10.33;7.70;;;4.80;99.90;;;5.54;100.00;-19915.38;5049819;28;20299;-69
2022/01/23 03:45:55;;;;;;;11.07;7.87;;;4.80;99.90;;;5.58;100.00;-19916.75;5050826;28;20230;-69
2022/01/23 03:51:17;;;;;;;11.87;8.00;;;4.80;99.90;;;5.67;100.00;-19919.81;5050634;28;20220;-69
2022/01/23 03:53:45;;;;;;;11.20;8.10;;;4.80;99.90;;;5.69;100.00;-19920.50;5049752;28;20665;-68
2022/01/23 03:56:14;;;;;;;11.33;8.27;;;4.80;99.90;;;5.61;100.00;-19917.78;5050071;28;20313;-68
2022/01/23 03:58:44;;;;;;;11.90;8.30;;;4.80;99.90;;;5.63;100.00;-19918.47;5050137;28;20236;-68
2022/01/23 04:01:12;;;;;;;12.13;8.57;;;4.80;99.90;;;5.54;100.00;-19915.38;5049944;28;20233;-68
2022/01/23 04:03:41;;;;;;;11.20;7.83;;;4.70;99.90;;;5.50;100.00;-19914.00;5049871;28;20262;-67
2022/01/23 04:06:09;;;;;;;12.10;8.23;;;4.70;99.90;;;5.78;100.00;-19923.75;5050294;28;20205;-68
2022/01/23 04:08:37;;;;;;;12.10;8.97;;;4.80;99.90;;;5.87;100.00;-19926.66;5049937;28;20233;-70
2022/01/23 04:11:05;;;;;;;12.77;8.17;;;4.80;99.90;;;5.60;100.00;-19917.44;5049914;28;20316;-66
2022/01/23 04:13:43;;;;;;;13.43;8.20;;;4.80;99.90;;;5.64;100.00;-19918.78;5050021;28;20239;-69
2022/01/23 04:16:32;;;;;;;13.33;8.57;;;4.80;99.90;;;5.57;100.00;-19916.41;5050032;28;20640;-69
2022/01/23 04:33:11;;;;;;;12.27;8.63;;;4.70;99.90;;;5.50;100.00;-19914.19;5052077;28;20795;-66
2022/01/23 04:47:20;;;;;;;12.83;8.60;;;4.60;99.90;;;5.42;100.00;-19911.44;5053394;28;20233;-68
2022/01/23 05:00:53;;;;;;;13.40;8.80;;;4.60;99.90;;;5.30;100.00;-19907.19;5053211;28;20193;-69
2022/01/23 05:06:10;;;;;;;11.93;8.27;;;4.50;99.90;;;5.43;100.00;-19911.78;5053317;28;20207;-69
2022/01/23 05:08:38;;;;;;;14.40;8.87;;;4.50;99.90;;;5.48;100.00;-19913.50;5052707;28;20319;-68
2022/01/23 05:11:11;;;;;;;12.47;8.57;;;4.60;99.90;;;5.41;100.00;-19910.94;5052928;28;20799;-69
2022/01/23 05:13:39;;;;;;;10.83;8.40;;;4.60;99.90;;;5.59;100.00;-19917.09;5053379;28;20317;-68
2022/01/23 05:16:09;;;;;;;10.40;8.33;;;4.60;99.90;;;5.63;100.00;-19918.47;5054401;28;20827;-67
2022/01/23 05:18:38;;;;;;;11.47;8.30;;;4.60;99.90;;;5.40;100.00;-19910.59;5053944;28;20199;-68
2022/01/23 05:21:31;;;;;;;11.67;8.43;;;4.60;99.90;;;5.45;100.00;-19912.47;5054301;28;20291;-70
2022/01/23 05:24:01;;;;;;;11.63;8.17;;;4.60;99.90;;;5.34;100.00;-19908.53;5053922;28;20223;-67
2022/01/23 05:26:29;;;;;;;11.57;8.40;;;4.50;99.90;;;5.27;100.00;-19906.31;5054327;28;20259;-67
2022/01/23 05:28:57;;;;;;;12.00;8.90;;;4.50;99.90;;;5.34;100.00;-19908.72;5053208;28;20253;-69
2022/01/23 05:31:25;;;;;;;11.83;8.47;;;4.50;99.90;;;5.23;100.00;-19904.78;5054496;28;20228;-68
2022/01/23 05:33:53;;;;;;;10.33;8.43;;;4.50;99.90;;;5.25;100.00;-19905.47;5054572;28;20234;-67
2022/01/23 05:36:23;;;;;;;11.40;8.63;;;4.50;99.90;;;5.29;100.00;-19906.84;5053731;28;20256;-68
2022/01/23 05:38:51;;;;;;;9.73;7.43;;;4.50;99.90;;;5.21;100.00;-19904.09;5053670;28;20294;-70
2022/01/23 05:41:19;;;;;;;10.63;7.53;;;4.40;99.90;;;5.18;100.00;-19903.25;5054442;28;20247;-68
2022/01/23 05:43:47;;;;;;;10.67;7.47;;;4.40;99.90;;;5.24;100.00;-19905.31;5053649;28;20303;-68
2022/01/23 05:46:17;;;;;;;10.67;7.47;;;4.40;99.90;;;5.48;100.00;-19913.34;5054854;28;20781;-65
2022/01/23 05:48:45;;;;;;;8.63;7.10;;;4.50;99.90;;;5.29;100.00;-19906.84;5054732;28;20228;-70
2022/01/23 05:51:14;;;;;;;10.97;7.53;;;4.40;99.90;;;5.12;100.00;-19901.03;5054767;28;20209;-67
2022/01/23 05:53:43;;;;;;;11.30;7.70;;;4.40;99.90;;;5.16;100.00;-19902.56;5055432;28;20739;-68
2022/01/23 05:56:11;;;;;;;13.20;7.87;;;4.40;99.90;;;5.32;100.00;-19908.03;5054878;28;20259;-67
2022/01/23 05:58:39;;;;;;;10.73;7.33;;;4.40;99.90;;;5.30;100.00;-19907.34;5053956;28;20652;-68
2022/01/23 06:01:07;;;;;;;12.73;7.37;;;4.40;99.90;;;5.25;100.00;-19905.63;5054911;28;20236;-67
2022/01/23 06:03:35;;;;;;;10.60;7.07;;;4.40;99.90;;;5.32;100.00;-19907.84;5053630;28;20212;-68
2022/01/23 06:06:04;;;;;;;9.80;7.40;;;4.40;99.90;;;5.16;100.00;-19902.41;5052389;28;20208;-70
2022/01/23 06:08:33;;;;;;;9.67;7.63;;;4.40;99.90;;;5.24;100.00;-19905.13;5051864;28;20234;-70
2022/01/23 06:11:02;;;;;;;9.57;7.20;;;4.30;99.90;;;5.17;100.00;-19902.91;5051606;28;20240;-69
2022/01/23 06:13:33;;;;;;;10.53;7.60;;;4.40;99.90;;;5.09;100.00;-19900.16;5051808;28;20232;-69
2022/01/23 06:16:03;;;;;;;9.90;7.83;;;4.30;99.90;;;5.10;100.00;-19900.50;5051473;28;20231;-68
2022/01/23 06:18:32;;;;;;;10.60;7.43;;;4.30;99.90;;;5.04;100.00;-19898.47;5052170;28;20235;-68
2022/01/23 06:21:00;;;;;;;8.63;7.23;;;4.30;99.90;;;5.11;100.00;-19900.84;5051333;28;20229;-69
2022/01/23 06:23:30;;;;;;;11.37;7.60;;;4.30;99.90;;;5.17;100.00;-19902.72;5051085;28;20715;-69
2022/01/23 06:25:59;;;;;;;9.23;6.70;;;4.30;99.90;;;5.16;100.00;-19902.41;5050520;28;20282;-69
2022/01/23 06:28:46;;;;;;;10.83;7.80;;;4.30;99.90;;;5.31;100.00;-19907.69;5050674;28;20232;-69
2022/01/23 06:31:15;;;;;;;10.30;7.50;;;4.30;99.90;;;5.16;100.00;-19902.41;5051829;28;20229;-69
2022/01/23 06:33:43;;;;;;;12.03;7.47;;;4.30;99.90;;;5.11;100.00;-19900.69;5051641;28;20213;-71
2022/01/23 06:36:11;;;;;;;10.17;7.83;;;4.30;99.90;;;5.22;100.00;-19904.63;5051937;28;20204;-69
2022/01/23 06:38:40;;;;;;;12.77;8.13;;;4.30;99.90;;;5.15;100.00;-19902.22;5051465;28;20705;-67
2022/01/23 06:41:08;;;;;;;10.83;7.80;;;4.30;99.90;;;5.08;100.00;-19899.66;5050589;28;20249;-68
2022/01/23 06:43:37;;;;;;;10.90;7.37;;;4.30;99.90;;;5.17;100.00;-19902.72;5051492;28;20427;-68
2022/01/23 06:46:05;;;;;;;10.40;8.00;;;4.30;99.90;;;5.13;100.00;-19901.38;5051385;28;20233;-69
2022/01/23 06:48:33;;;;;;;11.13;8.27;;;4.30;99.90;;;5.03;100.00;-19898.13;5051501;28;20228;-68
2022/01/23 06:51:02;;;;;;;10.97;8.43;;;4.30;99.90;;;5.06;100.00;-19899.13;5052139;28;20240;-69
2022/01/23 06:53:30;;;;;;;11.17;7.93;;;4.30;99.90;;;5.10;100.00;-19900.34;5051307;28;20266;-69
2022/01/23 06:55:58;;;;;;;11.60;8.00;;;4.20;99.90;;;5.12;100.00;-19901.19;5050826;28;20760;-69
2022/01/23 06:58:26;;;;;;;11.93;8.20;;;4.20;99.90;;;5.15;100.00;-19902.22;5051317;28;20249;-69
2022/01/23 07:00:56;;;;;;;10.70;7.80;;;4.30;99.90;;;5.04;100.00;-19898.47;5051340;28;20225;-69
2022/01/23 07:03:25;;;;;;;12.60;8.57;;;4.30;99.90;;;5.02;100.00;-19897.78;5051840;28;20211;-64
2022/01/23 07:05:53;;;;;;;12.27;8.60;;;4.20;99.90;;;5.09;100.00;-19900.00;5050979;28;20328;-64
2022/01/23 07:08:21;;;;;;;12.07;8.13;;;4.20;99.90;;;4.96;100.00;-19895.72;5051132;28;20319;-63
2022/01/23 07:10:49;;;;;;;11.40;8.00;;;4.20;99.90;;;4.90;100.00;-19893.84;5050655;28;20554;-63
2022/01/23 07:13:17;;;;;;;11.87;8.37;;;4.20;99.90;;;4.92;100.00;-19894.34;5051215;28;20232;-62
2022/01/23 07:15:47;;;;;;;11.30;8.00;;;4.10;99.90;;;4.92;100.00;-19894.53;5030683;28;20286;-65
2022/01/23 07:18:18;;;;;;;11.73;8.37;;;4.10;99.90;;;4.97;100.00;-19896.06;5041097;28;20283;-63
2022/01/23 07:20:47;;;;;;;11.60;8.10;;;4.10;99.90;;;5.13;100.00;-19901.53;5050594;28;20252;-63
2022/01/23 07:23:21;;;;;;;12.80;7.43;;;4.20;99.90;;;4.98;100.00;-19896.41;5051109;28;20307;-69
2022/01/23 07:25:49;;;;;;;12.00;7.97;;;4.20;99.90;;;4.99;100.00;-19896.91;5051035;28;20243;-69
2022/01/23 07:28:21;;;;;;;10.83;7.43;;;4.20;99.90;;;5.09;100.00;-19900.00;5051254;28;20232;-68
2022/01/23 07:30:51;;;;;;;11.47;7.90;;;4.20;99.90;;;5.17;100.00;-19902.72;5051394;28;20192;-68
2022/01/23 07:33:21;;;;;;;12.43;8.27;;;4.30;99.90;;;5.25;100.00;-19905.47;5051815;28;20276;-69
2022/01/23 07:35:49;;;;;;;11.40;7.53;;;4.30;99.90;;;5.40;100.00;-19910.59;5051177;28;20290;-70
2022/01/23 07:38:18;;;;;;;10.37;7.60;;;4.40;99.90;;;5.21;100.00;-19904.09;5051091;28;20339;-69
2022/01/23 07:40:48;;;;;;;10.77;7.77;;;4.40;99.90;;;5.24;100.00;-19905.31;5051014;28;20243;-68
2022/01/23 07:43:17;;;;;;;13.30;8.30;;;4.40;99.90;;;5.30;100.00;-19907.34;5051444;28;20235;-69
2022/01/23 07:45:45;;;;;;;12.67;7.83;;;4.50;99.90;;;5.39;100.00;-19910.25;5051144;28;20213;-68
2022/01/23 07:48:13;;;;;;;11.80;7.50;;;4.50;99.90;;;5.42;100.00;-19911.28;5051496;28;20299;-70
2022/01/23 07:50:44;;;;;;;10.30;7.93;;;4.50;99.90;;;5.34;100.00;-19908.72;5050975;28;20332;-69
2022/01/23 07:53:11;;;;;;;10.60;7.80;;;4.50;99.90;;;5.34;100.00;-19908.72;5053454;28;20235;-70
2022/01/23 07:55:40;;;;;;;10.70;7.60;;;4.50;99.90;;;5.43;100.00;-19911.63;5054865;28;20648;-69
2022/01/23 07:58:12;;;;;;;11.57;7.27;;;4.50;99.90;;;5.57;100.00;-19916.41;5054655;28;20797;-69
2022/01/23 08:00:42;;;;;;;10.07;7.80;;;4.60;99.90;;;5.70;100.00;-19920.84;5054986;28;20189;-68
2022/01/23 08:03:10;;;;;;;11.33;7.00;;;4.60;99.90;;;5.58;100.00;-19916.91;5055025;28;20282;-70
2022/01/23 08:05:39;;;;;;;10.87;7.00;;;4.70;99.90;;;5.55;100.00;-19915.72;5054788;28;20641;-69
2022/01/23 08:08:08;;;;;;;10.70;7.30;;;4.70;99.90;;;5.61;100.00;-19917.78;5054230;28;20650;-68
2022/01/23 08:10:38;;;;;;;10.70;7.83;;;4.80;99.90;;;5.65;100.00;-19919.16;5054135;28;20235;-71
2022/01/23 08:13:06;;;;;;;11.10;8.37;;;4.80;99.90;;;5.80;100.00;-19924.28;5054033;28;20228;-69
2022/01/23 08:15:36;;;;;;;10.47;7.70;;;4.90;99.90;;;5.85;100.00;-19925.97;5052718;28;20296;-69
2022/01/23 08:18:07;;;;;;;8.20;6.60;;;4.90;99.90;;;5.95;100.00;-19929.56;5052265;28;20275;-70
2022/01/23 08:20:36;;;;;;;11.23;7.37;;;4.90;99.90;;;5.94;100.00;-19929.22;5051509;28;20322;-69
2022/01/23 08:23:05;;;;;;;9.77;7.10;;;5.00;99.90;;;5.97;100.00;-19930.25;5049383;28;20268;-69
2022/01/23 08:25:35;;;;;;;8.13;6.43;;;5.10;99.90;;;5.98;100.00;-19930.59;5052603;28;20628;-69
2022/01/23 08:28:03;;;;;;;8.80;6.33;;;5.00;99.90;;;5.97;100.00;-19930.09;5052277;28;20681;-69
2022/01/23 08:30:32;;;;;;;8.10;6.33;;;5.00;99.90;;;5.90;100.00;-19927.84;5052213;28;20225;-70
2022/01/23 08:33:00;;;;;;;7.27;5.70;;;5.00;99.90;;;5.84;100.00;-19925.81;5048498;28;20712;-69
2022/01/23 08:35:28;;;;;;;8.53;6.50;;;5.00;99.90;;;5.89;100.00;-19927.53;5052351;28;20638;-69
2022/01/23 08:37:57;;;;;;;7.47;5.90;;;5.00;99.90;;;5.87;100.00;-19926.66;5050355;28;20284;-69
2022/01/23 08:40:45;;;;;;;9.50;6.47;;;5.00;99.90;;;5.92;100.00;-19928.53;5051244;28;20336;-69
2022/01/23 08:43:17;;;;;;;6.97;5.67;;;5.00;99.90;;;6.02;100.00;-19931.78;5052783;28;20228;-70
2022/01/23 08:45:46;;;;;;;7.43;5.73;;;5.10;99.90;;;6.12;100.00;-19935.22;5053590;28;20743;-69
2022/01/23 08:48:14;;;;;;;7.30;5.27;;;5.10;99.90;;;5.97;100.00;-19930.09;5052984;28;20763;-69
2022/01/23 08:50:42;;;;;;;8.63;5.37;;;5.10;99.90;;;6.05;100.00;-19932.81;5053505;28;20301;-69
2022/01/23 08:53:10;;;;;;;8.57;5.30;;;5.10;99.90;;;6.08;100.00;-19933.84;5052766;28;20204;-70
2022/01/23 08:55:38;;;;;;;7.47;5.33;;;5.10;99.90;;;6.04;100.00;-19932.66;5052497;28;20284;-70
2022/01/23 08:58:06;;;;;;;7.07;5.03;;;5.20;99.90;;;6.14;100.00;-19936.06;5052662;28;20229;-70
2022/01/23 09:00:36;;;;;;;7.00;5.40;;;5.20;99.90;;;6.12;100.00;-19935.22;5052346;28;20243;-71
2022/01/23 09:03:04;;;;;;;6.33;5.20;;;5.20;99.90;;;6.04;100.00;-19932.47;5052796;28;20239;-71
2022/01/23 09:05:32;;;;;;;5.60;4.90;;;5.20;99.90;;;6.22;100.00;-19938.47;5063068;28;20266;-71
2022/01/23 09:08:01;;;;;;;5.57;4.47;;;5.20;99.90;;;6.19;100.00;-19937.78;5072512;28;20270;-70
2022/01/23 09:10:39;;;;;;;5.27;4.20;;;5.20;99.90;;;5.99;100.00;-19930.94;5073220;28;20244;-69
2022/01/23 09:13:25;;;;;;;8.00;4.90;;;5.20;99.90;;;5.94;100.00;-19929.06;5072519;28;20235;-70
2022/01/23 09:15:55;;;;;;;5.90;4.60;;;5.10;99.90;;;5.86;100.00;-19926.50;5072507;28;20216;-70
2022/01/23 09:18:23;;;;;;;7.43;4.30;;;5.10;99.90;;;6.00;100.00;-19931.28;5088974;28;20253;-72
2022/01/23 09:20:52;;;;;;;7.90;5.00;;;5.10;99.90;;;6.07;100.00;-19933.66;5079820;28;20238;-70
2022/01/23 09:23:20;;;;;;;5.67;4.53;;;5.20;99.90;;;6.10;100.00;-19934.69;5078731;28;20262;-72
2022/01/23 09:25:49;;;;;;;8.30;4.87;;;5.20;99.90;;;6.09;100.00;-19934.34;5072900;28;20232;-70
2022/01/23 09:28:19;;;;;;;6.43;4.87;;;5.20;99.90;;;6.22;100.00;-19938.47;5072924;28;20197;-69
2022/01/23 09:30:51;;;;;;;6.60;4.60;;;5.20;99.90;;;6.18;100.00;-19937.25;5073205;28;20964;-69
2022/01/23 09:33:20;;;;;;;6.50;4.70;;;5.20;99.90;;;6.18;100.00;-19937.25;5085094;28;20200;-73
2022/01/23 09:35:48;;;;;;;6.90;4.93;;;5.20;99.90;;;6.27;100.00;-19940.34;5077765;28;20240;-69
2022/01/23 09:38:16;;;;;;;6.07;5.17;;;5.30;99.90;;;6.10;100.00;-19934.69;5092246;28;20733;-70
2022/01/23 09:40:46;;;;;;;7.13;5.03;;;5.30;99.90;;;6.19;100.00;-19937.78;5084903;28;20660;-69
2022/01/23 09:43:19;;;;;;;5.40;4.60;;;5.30;99.90;;;6.41;100.00;-19945.13;5083367;28;20203;-70
2022/01/23 09:45:51;;;;;;;5.00;4.47;;;5.40;99.90;;;6.38;100.00;-19944.09;5076390;28;20644;-69
2022/01/23 09:48:22;;;;;;;5.83;4.20;;;5.50;99.90;;;6.50;100.00;-19948.19;5088315;28;20268;-69
2022/01/23 09:50:53;;;;;;;5.63;4.30;;;5.50;99.90;;;6.69;100.00;-19954.69;5071699;28;20292;-70
2022/01/23 09:53:23;;;;;;;5.43;4.50;;;5.60;99.90;;;6.85;100.00;-19960.16;5084016;28;20192;-69
2022/01/23 09:55:57;;;;;;;7.87;4.90;;;5.60;99.90;;;6.95;100.00;-19963.56;5075543;28;20188;-69
2022/01/23 09:58:27;;;;;;;5.43;4.40;;;5.80;99.90;;;7.01;100.00;-19965.63;5056322;28;20645;-69
2022/01/23 10:00:56;;;;;;;6.20;4.30;;;5.80;99.90;;;7.03;100.00;-19966.31;5072119;28;20355;-68
2022/01/23 10:03:26;;;;;;;4.80;3.77;;;6.00;99.90;;;7.02;100.00;-19965.97;5084592;28;20369;-68
2022/01/23 10:05:57;;;;;;;6.73;3.93;;;6.00;99.90;;;6.99;100.00;-19964.94;5076136;28;20189;-68
2022/01/23 10:08:28;;;;;;;6.27;3.57;;;6.00;99.90;;;6.62;100.00;-19952.31;5051689;28;20288;-69
2022/01/23 10:10:57;;;;;;;4.70;3.90;;;5.80;99.90;;;6.59;100.00;-19951.28;5052058;28;20264;-70
2022/01/23 10:13:27;;;;;;;6.20;4.23;;;5.80;99.90;;;6.71;100.00;-19955.38;5064181;28;20292;-71
2022/01/23 10:15:55;;;;;;;6.40;4.47;;;5.90;99.90;;;6.77;100.00;-19957.44;5087005;28;20299;-71
2022/01/23 10:18:23;;;;;;;7.40;5.13;;;5.80;99.90;;;6.93;100.00;-19962.91;5091513;28;20672;-70
2022/01/23 10:20:53;;;;;;;9.90;6.07;;;5.90;99.90;;;7.12;100.00;-19969.22;5085166;28;20710;-72
2022/01/23 10:23:21;;;;;;;6.27;5.00;;;6.00;99.90;;;7.31;100.00;-19975.88;5091779;28;20672;-69
2022/01/23 10:25:51;;;;;;;6.80;4.17;;;6.10;99.90;;;7.35;100.00;-19977.06;5075695;28;20201;-68
2022/01/23 10:28:26;;;;;;;5.83;4.27;;;6.20;99.90;;;7.40;100.00;-19978.97;5087922;28;20299;-68
2022/01/23 10:31:01;;;;;;;4.43;4.03;;;6.20;99.90;;;7.32;100.00;-19976.22;5079803;28;20250;-71
2022/01/23 10:33:32;;;;;;;6.00;4.17;;;6.20;99.90;;;7.09;100.00;-19968.19;5078588;28;20299;-70
2022/01/23 10:36:05;;;;;;;5.53;3.80;;;6.10;99.90;;;7.12;100.00;-19969.22;5088743;28;20220;-75
2022/01/23 10:38:37;;;;;;;4.53;3.73;;;6.10;99.90;;;7.12;100.00;-19969.22;5071384;28;20243;-69
2022/01/23 10:41:31;;;;;;;4.40;4.00;;;6.10;99.90;;;7.07;100.00;-19967.69;5081335;28;20548;-72
2022/01/23 10:47:31;;;;;;;5.27;4.30;;;6.10;99.90;;;6.97;100.00;-19964.09;5083571;28;20215;-72
2022/01/23 10:50:03;;;;;;;5.30;3.90;;;6.10;99.90;;;7.14;100.00;-19969.91;5088601;28;20231;-73
2022/01/23 10:52:38;;;;;;;5.03;4.13;;;6.00;99.90;;;7.03;100.00;-19966.31;5087026;28;20235;-69
2022/01/23 10:55:24;;;;;;;5.47;4.53;;;6.00;99.90;;;7.07;100.00;-19967.69;5071368;28;20179;-72
2022/01/23 10:57:56;;;;;;;4.80;4.00;;;6.10;99.90;;;7.07;100.00;-19967.69;5087050;28;20219;-70
2022/01/23 11:00:28;;;;;;;5.13;3.80;;;6.10;99.90;;;7.25;100.00;-19973.84;5054972;28;20219;-75
2022/01/23 11:02:59;;;;;;;3.80;3.50;;;6.10;99.90;;;7.43;100.00;-19979.97;5079739;28;20180;-70
2022/01/23 11:05:33;;;;;;;5.50;4.00;;;6.20;99.90;;;7.56;100.00;-19984.09;5077605;28;20201;-70
2022/01/23 11:08:03;;;;;;;4.27;3.77;;;6.30;99.90;;;7.87;100.00;-19994.69;5071478;28;20236;-71
2022/01/23 11:10:31;;;;;;;4.20;3.80;;;6.40;99.90;;;7.93;100.00;-19996.72;5086346;28;20251;-69
2022/01/23 11:18:45;;;;;;;5.67;4.43;;;6.60;99.90;;;7.73;100.00;-19990.06;5008743;28;20675;-69
2022/01/23 11:21:19;;;;;;;3.93;3.60;;;6.60;99.90;;;7.79;100.00;-19991.94;5056432;28;20689;-71
2022/01/23 11:24:08;;;;;;;4.57;3.80;;;6.70;99.90;;;7.60;100.00;-19985.44;5086926;28;20203;-72
2022/01/23 11:26:36;;;;;;;4.10;3.70;;;6.60;99.90;;;7.49;100.00;-19981.88;5076860;28;20200;-70
2022/01/23 11:29:11;;;;;;;5.90;3.40;;;6.60;99.90;;;7.37;100.00;-19977.94;5082026;28;20581;-69
2022/01/23 11:31:41;;;;;;;4.20;3.40;;;6.50;99.90;;;7.32;100.00;-19976.06;5086089;28;20200;-70
2022/01/23 11:34:12;;;;;;;4.20;3.63;;;6.40;99.90;;;7.50;100.00;-19982.03;5074917;28;20235;-69
2022/01/23 11:36:42;;;;;;;4.73;3.77;;;6.40;99.90;;;7.38;100.00;-19978.09;5092173;28;20311;-72
2022/01/23 11:39:16;;;;;;;5.67;3.97;;;6.40;99.90;;;7.23;100.00;-19973.16;5092139;28;20200;-70
2022/01/23 11:50:51;;;;;;;4.20;3.80;;;6.20;99.90;;;7.25;100.00;-19973.84;5071866;28;20280;-71
2022/01/23 11:53:46;;;;;;;4.60;4.07;;;6.20;99.90;;;7.49;100.00;-19981.69;5082772;28;20230;-70
2022/01/23 11:56:41;;;;;;;4.30;3.90;;;6.30;99.90;;;7.90;100.00;-19995.88;5088179;28;20197;-70
2022/01/23 11:59:33;;;;;;;4.60;4.07;;;6.50;99.90;;;7.89;100.00;-19995.34;5071202;28;20197;-71
2022/01/23 12:02:37;;;;;;;4.20;3.80;;;6.60;99.90;;;7.66;100.00;-19987.50;5070938;28;20226;-71
2022/01/23 12:05:26;;;;;;;4.40;4.00;;;6.70;99.90;;;7.65;100.00;-19987.16;5071041;28;20185;-72
2022/01/23 12:08:27;;;;;;;4.60;4.20;;;6.60;99.90;;;7.34;100.00;-19976.91;5071133;28;20275;-71
2022/01/23 12:17:42;;;;;;;5.33;4.83;;;6.30;99.90;;;7.36;100.00;-19977.59;5070435;28;20228;-68
2022/01/23 12:20:12;;;;;;;4.73;4.33;;;6.40;99.90;;;7.53;100.00;-19983.06;5070513;28;20197;-69
2022/01/23 12:22:54;;;;;;;5.30;4.80;;;6.50;99.90;;;7.61;100.00;-19985.78;5070494;28;20209;-70
2022/01/23 12:25:30;;;;;;;5.97;5.17;;;6.50;99.90;;;7.60;100.00;-19985.44;5070344;28;20192;-71
2022/01/23 12:28:16;;;;;;;6.23;5.60;;;6.60;99.90;;;7.62;100.00;-19986.13;5071235;28;20189;-71
2022/01/23 12:30:49;;;;;;;6.23;5.60;;;6.60;99.90;;;7.71;100.00;-19989.38;5069936;28;20768;-69
2022/01/23 12:33:46;;;;;;;5.33;4.83;;;6.60;99.90;;;7.76;100.00;-19991.09;5070626;28;20189;-72
2022/01/23 12:36:27;;;;;;;5.37;4.87;;;6.60;99.90;;;7.64;100.00;-19987.00;5070404;28;20282;-70
2022/01/23 12:38:58;;;;;;;5.97;4.80;;;6.60;99.90;;;7.47;100.00;-19981.19;5070643;28;20186;-69
2022/01/23 12:41:32;;;;;;;5.47;4.97;;;6.50;99.90;;;7.52;100.00;-19982.88;5073628;28;20551;-72
2022/01/23 12:44:05;;;;;;;5.80;5.10;;;6.50;99.90;;;7.44;100.00;-19980.16;5073157;28;20185;-69
2022/01/23 12:46:42;;;;;;;5.97;5.47;;;6.40;99.90;;;7.49;100.00;-19981.69;5073680;28;20185;-70
2022/01/23 12:49:29;;;;;;;5.70;4.63;;;6.60;99.90;;;7.38;100.00;-19978.28;5073156;28;20188;-69
2022/01/23 12:52:17;;;;;;;6.07;4.90;;;6.40;99.90;;;7.31;100.00;-19975.88;5073456;28;20307;-71
2022/01/23 12:54:57;;;;;;;6.73;4.87;;;6.30;99.90;;;7.27;100.00;-19974.50;5073386;28;20280;-72
2022/01/23 12:57:35;;;;;;;5.07;4.57;;;6.30;99.90;;;7.12;100.00;-19969.38;5074017;28;20617;-70